KMFE/MFE METAR and TAF weather

Enter ICAO airport designator
Station Type Date Time Source
KMFE METAR 2019/04/18 13:53 UTC NOAA

KMFE 181353Z 30011KT 10SM CLR 20/16 A2983 RMK AO2 SLP098 T02000161


Station Type Date Time Source
KMFE Decoded METAR 2019/04/18 13:53 UTC NOAA

MCALLEN MILLER INTERNATIONAL AIRPORT , TX, United States (KMFE) 26-11N 98-15W 38M
Apr 18, 2019 - 09:53 AM EDT / 2019.04.18 1353 UTC
Wind: from the WNW (300 degrees) at 13 MPH (11 KT):0
Visibility: 10 mile(s):0
Sky conditions: clear
Temperature: 68.0 F (20.0 C)
Dew Point: 61.0 F (16.1 C)
Relative Humidity: 78%
Pressure (altimeter): 29.83 in. Hg (1010 hPa)
ob: KMFE 181353Z 30011KT 10SM CLR 20/16 A2983 RMK AO2 SLP098 T02000161
cycle: 14

Station Type Date Time Source
KMFE TAF 2019/04/18 12:36 UTC NOAA

TAF KMFE 181132Z 1812/1912 35015G25KT P6SM VCSH BKN035
FM181300 34016G24KT P6SM SKC
FM181800 33025G32KT P6SM SKC

Example: see airport list